Mohall, North Dakota
Current Conditions -  °F | °C
As of 7:58 PM on Wednesday 22 Oct 2014 (Local Time) from KMIB Reporting Station
Overcast Overcast  
Wind Chill: 55°   Ceiling: 6000
Heat Index: 55°   Visibility: 10mi
Dew Point: 45°   Wind: 7mph
Humidity: 67%   Direction: 230°SW
Pressure: 29.8"   Gusts: NA
Location:  48.76°N, 101.51°W
Report Text: KMIB 230058Z AUTO 23006KT 10SM OVC060 13/07 A2980 RMK AO2 SLP100 T01300071 $
Loading
Personal Weather Stations






























Interactive Weather Map
Tropical Storm Tracking
New forecast layout! Learn more

10-Day Weather Forecast

Advertisements
Track Severe Weather on mobile